createdAt,value
2023-05-06T00:01:57.212Z,86.78
2023-05-06T00:04:23.994Z,86.25
2023-05-06T00:06:51.374Z,86.51
2023-05-06T00:09:17.999Z,87.30
2023-05-06T00:11:45.779Z,87.08
2023-05-06T00:14:12.418Z,86.78
2023-05-06T00:16:39.016Z,87.05
2023-05-06T00:19:05.669Z,86.99
2023-05-06T00:21:32.124Z,86.99
2023-05-06T00:23:58.625Z,87.22
2023-05-06T00:26:25.085Z,87.36
2023-05-06T00:28:51.599Z,87.15
2023-05-06T00:31:18.118Z,87.00
2023-05-06T00:33:44.922Z,87.12
2023-05-06T00:36:11.399Z,87.04
2023-05-06T00:38:37.878Z,87.28
2023-05-06T00:41:04.533Z,86.85
2023-05-06T00:43:31.041Z,87.08
2023-05-06T00:45:57.633Z,87.21
2023-05-06T00:48:24.767Z,87.00
2023-05-06T00:50:51.337Z,86.93
2023-05-06T00:53:21.575Z,86.90
2023-05-06T00:55:49.875Z,87.00
2023-05-06T00:58:18.833Z,87.11
2023-05-06T01:00:45.781Z,87.31
2023-05-06T01:03:12.588Z,87.21
2023-05-06T01:06:05.887Z,86.98
2023-05-06T01:08:37.350Z,86.93
2023-05-06T01:11:17.055Z,86.44
2023-05-06T01:14:20.759Z,86.32
2023-05-06T01:16:50.224Z,86.26
2023-05-06T01:19:41.787Z,86.16
2023-05-06T01:22:10.939Z,86.62
2023-05-06T01:24:45.142Z,86.81
2023-05-06T01:27:13.223Z,86.24
2023-05-06T01:29:42.606Z,86.75
2023-05-06T01:32:39.434Z,87.10
2023-05-06T01:35:20.867Z,86.95
2023-05-06T01:37:54.986Z,87.39
2023-05-06T01:40:26.104Z,87.98
2023-05-06T01:42:53.189Z,88.10
2023-05-06T01:45:21.743Z,87.93
2023-05-06T01:47:49.513Z,87.61
2023-05-06T01:50:16.305Z,87.42
2023-05-06T01:52:43.026Z,87.43
2023-05-06T01:55:10.058Z,87.24
2023-05-06T01:57:37.689Z,86.90
2023-05-06T02:00:05.691Z,87.14
2023-05-06T02:02:32.405Z,86.53
2023-05-06T02:04:59.078Z,87.00
2023-05-06T02:07:25.752Z,87.61
2023-05-06T02:09:52.530Z,88.28
2023-05-06T02:12:19.219Z,88.08
2023-05-06T02:14:45.885Z,87.72
2023-05-06T02:17:12.573Z,87.48
2023-05-06T02:19:39.282Z,87.93
2023-05-06T02:22:06.023Z,87.33
2023-05-06T02:24:32.710Z,87.14
2023-05-06T02:26:59.379Z,87.49
2023-05-06T02:29:26.081Z,87.72
2023-05-06T02:31:52.801Z,87.69
2023-05-06T02:34:19.606Z,88.51
2023-05-06T02:36:46.297Z,88.36
2023-05-06T02:39:12.980Z,87.86
2023-05-06T02:41:39.663Z,87.70
2023-05-06T02:44:06.398Z,88.09
2023-05-06T02:46:33.312Z,87.72
2023-05-06T02:49:00.808Z,88.11
2023-05-06T02:51:27.476Z,88.04
2023-05-06T02:53:54.129Z,88.60
2023-05-06T02:56:21.586Z,89.22
2023-05-06T02:58:48.294Z,88.83
2023-05-06T03:01:15.037Z,89.14
2023-05-06T03:03:42.009Z,89.40
2023-05-06T03:06:08.905Z,88.98
2023-05-06T03:08:35.579Z,89.38
2023-05-06T03:11:02.436Z,89.10
2023-05-06T03:13:29.132Z,89.96
2023-05-06T03:15:56.679Z,89.63
2023-05-06T03:18:23.371Z,89.59
2023-05-06T03:20:50.284Z,89.63
2023-05-06T03:23:17.000Z,89.74
2023-05-06T03:25:43.665Z,90.12
2023-05-06T03:28:11.531Z,90.30
2023-05-06T03:30:38.311Z,89.96
2023-05-06T03:33:05.009Z,90.43
2023-05-06T03:35:31.766Z,90.32
2023-05-06T03:37:58.429Z,90.15
2023-05-06T03:40:25.176Z,90.02
2023-05-06T03:42:51.842Z,89.76
2023-05-06T03:45:18.548Z,89.42
2023-05-06T03:47:45.629Z,89.91
2023-05-06T03:50:12.852Z,90.09
2023-05-06T03:52:39.702Z,89.45
2023-05-06T03:55:07.015Z,89.73
2023-05-06T03:57:33.863Z,89.83
2023-05-06T04:00:00.640Z,89.98
2023-05-06T04:02:29.211Z,89.79
2023-05-06T04:04:55.973Z,89.78
2023-05-06T04:07:22.674Z,90.00
2023-05-06T04:09:49.607Z,89.85
2023-05-06T04:12:16.314Z,89.51
2023-05-06T04:14:42.982Z,89.61
2023-05-06T04:17:09.636Z,89.71
2023-05-06T04:19:36.550Z,90.02
2023-05-06T04:22:03.240Z,90.04
2023-05-06T04:24:31.148Z,89.75
2023-05-06T04:26:57.830Z,89.28
2023-05-06T04:29:25.183Z,89.09
2023-05-06T04:31:53.856Z,89.45
2023-05-06T04:34:20.729Z,89.50
2023-05-06T04:36:47.815Z,89.09
2023-05-06T04:39:14.583Z,89.25
2023-05-06T04:41:41.762Z,89.85
2023-05-06T04:44:08.434Z,90.11
2023-05-06T04:46:36.002Z,89.92
2023-05-06T04:49:02.759Z,90.77
2023-05-06T04:51:29.611Z,90.43
2023-05-06T04:53:56.335Z,90.01
2023-05-06T04:56:22.986Z,90.26
2023-05-06T04:58:49.749Z,89.90
2023-05-06T05:01:16.700Z,90.27
2023-05-06T05:03:43.551Z,89.90
2023-05-06T05:06:11.313Z,90.02
2023-05-06T05:08:37.974Z,90.37
2023-05-06T05:11:07.741Z,90.17
2023-05-06T05:13:34.844Z,90.52
2023-05-06T05:16:02.347Z,90.14
2023-05-06T05:18:29.204Z,90.25
2023-05-06T05:20:56.235Z,90.25
2023-05-06T05:23:22.924Z,89.84
2023-05-06T05:25:49.907Z,90.09
2023-05-06T05:28:16.623Z,90.08
2023-05-06T05:30:43.565Z,89.40
2023-05-06T05:33:10.468Z,90.04
2023-05-06T05:35:37.331Z,90.11
2023-05-06T05:38:03.987Z,89.84
2023-05-06T05:40:31.309Z,89.90
2023-05-06T05:42:57.988Z,90.51
2023-05-06T05:48:13.062Z,89.81
2023-05-06T05:50:39.718Z,89.51
2023-05-06T05:53:06.690Z,90.08
2023-05-06T05:55:33.486Z,90.06
2023-05-06T05:58:00.169Z,89.53
2023-05-06T06:00:26.885Z,90.02
2023-05-06T06:02:53.684Z,90.32
2023-05-06T06:05:20.461Z,90.63
2023-05-06T06:07:47.193Z,90.49
2023-05-06T06:10:15.315Z,89.93
2023-05-06T06:12:44.584Z,90.12
2023-05-06T06:15:13.257Z,90.61
2023-05-06T06:17:39.964Z,89.74
2023-05-06T06:20:07.354Z,90.40
2023-05-06T06:22:34.041Z,89.99
2023-05-06T06:25:00.758Z,90.03
2023-05-06T06:27:27.431Z,90.54
2023-05-06T06:29:54.125Z,89.88
2023-05-06T06:32:20.837Z,90.03
2023-05-06T06:34:47.512Z,90.05
2023-05-06T06:37:14.170Z,90.04
2023-05-06T06:39:40.808Z,90.14
2023-05-06T06:42:07.466Z,89.68
2023-05-06T06:44:34.567Z,89.84
2023-05-06T06:47:01.346Z,89.51
2023-05-06T06:49:28.051Z,89.92
2023-05-06T06:51:56.676Z,89.52
2023-05-06T06:54:24.032Z,89.64
2023-05-06T06:56:56.099Z,90.18
2023-05-06T06:59:23.150Z,90.35
2023-05-06T07:01:51.758Z,89.79
2023-05-06T07:04:18.443Z,90.11
2023-05-06T07:06:45.614Z,89.80
2023-05-06T07:09:13.240Z,89.94
2023-05-06T07:11:39.943Z,90.29
2023-05-06T07:14:07.101Z,90.06
2023-05-06T07:16:33.963Z,89.63
2023-05-06T07:19:01.221Z,90.45
2023-05-06T07:21:28.280Z,90.52
2023-05-06T07:23:54.986Z,90.12
2023-05-06T07:26:21.868Z,90.07
2023-05-06T07:28:48.585Z,89.81
2023-05-06T07:31:16.360Z,89.62
2023-05-06T07:33:43.107Z,89.37
2023-05-06T07:36:09.809Z,90.43
2023-05-06T07:38:36.470Z,89.70
2023-05-06T07:41:03.299Z,90.46
2023-05-06T07:43:30.020Z,90.09
2023-05-06T07:46:02.850Z,90.22
2023-05-06T07:48:30.339Z,89.68
2023-05-06T07:50:57.437Z,89.82
2023-05-06T07:53:24.284Z,89.73
2023-05-06T07:55:52.450Z,89.17
2023-05-06T07:58:19.158Z,90.40
2023-05-06T08:00:45.851Z,89.88
2023-05-06T08:03:12.599Z,89.49
2023-05-06T08:05:39.464Z,89.73
2023-05-06T08:08:06.188Z,89.80
2023-05-06T08:10:32.848Z,89.68
2023-05-06T08:12:59.602Z,89.63
2023-05-06T08:15:26.442Z,89.21
2023-05-06T08:17:53.286Z,89.52
2023-05-06T08:20:20.062Z,89.75
2023-05-06T08:22:46.726Z,89.49
2023-05-06T08:25:13.519Z,88.92
2023-05-06T08:27:40.610Z,88.91
2023-05-06T08:30:08.087Z,89.11
2023-05-06T08:32:34.783Z,89.70
2023-05-06T08:35:01.510Z,89.56
2023-05-06T08:37:30.368Z,88.62
2023-05-06T08:39:59.291Z,88.83
2023-05-06T08:42:28.098Z,89.14
2023-05-06T08:44:55.910Z,89.36
2023-05-06T08:47:22.798Z,88.66
2023-05-06T08:49:49.651Z,89.06
2023-05-06T08:52:16.772Z,88.60
2023-05-06T08:54:44.304Z,88.45
2023-05-06T08:57:12.528Z,87.71
2023-05-06T08:59:41.457Z,87.57
2023-05-06T09:02:08.469Z,87.72
2023-05-06T09:04:35.379Z,87.91
2023-05-06T09:07:02.064Z,88.03
2023-05-06T09:09:28.860Z,87.73
2023-05-06T09:11:57.434Z,87.44
2023-05-06T09:14:24.481Z,86.89
2023-05-06T09:16:52.826Z,86.86
2023-05-06T09:19:21.331Z,86.78
2023-05-06T09:21:50.854Z,86.51
2023-05-06T09:24:17.969Z,86.18
2023-05-06T09:26:46.136Z,86.18
2023-05-06T09:29:13.478Z,86.62
2023-05-06T09:31:44.835Z,86.54
2023-05-06T09:34:12.270Z,86.38
2023-05-06T09:36:39.066Z,86.42
2023-05-06T09:39:06.703Z,86.10
2023-05-06T09:41:33.378Z,85.22
2023-05-06T09:44:00.306Z,85.53
2023-05-06T09:46:27.980Z,84.86
2023-05-06T09:48:57.570Z,84.15
2023-05-06T09:51:27.652Z,83.75
2023-05-06T09:53:56.521Z,83.48
2023-05-06T09:56:23.718Z,83.30
2023-05-06T09:58:52.437Z,83.24
2023-05-06T10:01:32.553Z,82.95
2023-05-06T10:04:08.264Z,82.45
2023-05-06T10:06:39.395Z,81.95
2023-05-06T10:09:07.858Z,81.98
2023-05-06T10:11:35.502Z,83.22
2023-05-06T10:14:03.168Z,82.78
2023-05-06T10:16:30.413Z,82.89
2023-05-06T10:18:58.389Z,83.09
2023-05-06T10:21:29.768Z,82.69
2023-05-06T10:24:08.913Z,83.07
2023-05-06T10:26:40.573Z,83.35
2023-05-06T10:29:10.689Z,84.37
2023-05-06T10:31:44.768Z,84.57
2023-05-06T10:34:11.546Z,84.48
2023-05-06T10:36:39.997Z,84.89
2023-05-06T10:39:10.084Z,85.11
2023-05-06T10:41:37.311Z,85.32
2023-05-06T10:44:04.132Z,84.84
2023-05-06T10:46:31.056Z,85.13
2023-05-06T10:49:04.361Z,85.38
2023-05-06T10:51:34.691Z,85.09
2023-05-06T10:54:02.708Z,85.28
2023-05-06T10:56:35.304Z,85.79
2023-05-06T10:59:05.680Z,86.17
2023-05-06T11:01:32.439Z,86.23
2023-05-06T11:04:04.888Z,85.75
2023-05-06T11:06:44.894Z,85.88
2023-05-06T11:09:57.600Z,86.00
2023-05-06T11:12:47.061Z,86.02
2023-05-06T11:15:35.970Z,85.39
2023-05-06T11:18:26.299Z,85.59
2023-05-06T11:21:05.258Z,86.02
2023-05-06T11:23:49.379Z,85.81
2023-05-06T11:26:16.515Z,85.65
2023-05-06T11:28:45.274Z,85.58
2023-05-06T11:31:13.334Z,85.36
2023-05-06T11:33:52.327Z,84.72
2023-05-06T11:36:20.566Z,84.18
2023-05-06T11:38:49.533Z,83.63
2023-05-06T11:41:17.250Z,84.17
2023-05-06T11:43:50.841Z,84.25
2023-05-06T11:46:22.123Z,83.98
2023-05-06T11:48:50.306Z,83.55
2023-05-06T11:51:22.020Z,83.42
2023-05-06T11:53:48.807Z,82.93
2023-05-06T11:56:15.730Z,83.14
2023-05-06T11:58:43.885Z,83.29
2023-05-06T12:01:10.845Z,81.70
2023-05-06T12:03:37.870Z,81.15
2023-05-06T12:06:04.552Z,80.67
2023-05-06T12:11:02.489Z,81.42
2023-05-06T12:13:29.915Z,80.71
2023-05-06T12:15:59.343Z,79.85
2023-05-06T12:18:26.658Z,78.90
2023-05-06T12:20:54.640Z,79.47
2023-05-06T12:23:21.949Z,79.44
2023-05-06T12:26:02.010Z,79.58
2023-05-06T12:28:28.576Z,80.12
2023-05-06T12:30:55.159Z,80.42
2023-05-06T12:33:22.354Z,79.63
2023-05-06T12:35:51.493Z,79.73
2023-05-06T12:38:18.722Z,79.27
2023-05-06T12:40:53.576Z,79.72
2023-05-06T12:43:28.805Z,79.47
2023-05-06T12:46:06.563Z,79.22
2023-05-06T12:48:33.450Z,78.86
2023-05-06T12:50:59.982Z,79.03
2023-05-06T12:53:32.868Z,79.54
2023-05-06T12:55:59.371Z,79.88
2023-05-06T12:58:25.897Z,79.57
2023-05-06T13:00:52.427Z,79.56
2023-05-06T13:03:19.248Z,79.63
2023-05-06T13:05:50.141Z,79.20
2023-05-06T13:08:17.556Z,78.76
2023-05-06T13:10:44.044Z,78.34
2023-05-06T13:13:10.570Z,78.03
2023-05-06T13:15:37.269Z,78.06
2023-05-06T13:18:04.275Z,78.27
2023-05-06T13:20:32.309Z,78.71
2023-05-06T13:22:59.213Z,78.20
2023-05-06T13:25:25.896Z,78.47
2023-05-06T13:27:52.902Z,79.10
2023-05-06T13:30:19.363Z,78.97
2023-05-06T13:32:46.775Z,79.36
2023-05-06T13:35:13.468Z,79.79
2023-05-06T13:37:40.061Z,79.62
